sensor_id;sensor_type;location;lat;lon;timestamp;P1;durP1;ratioP1;P2;durP2;ratioP2
56517;SDS011;42419;48.760;2.322;2023-04-03T00:00:39;3.47;;;3.27;;
56517;SDS011;42419;48.760;2.322;2023-04-03T00:03:05;4.10;;;3.40;;
56517;SDS011;42419;48.760;2.322;2023-04-03T00:05:30;3.50;;;3.20;;
56517;SDS011;42419;48.760;2.322;2023-04-03T00:07:56;3.50;;;3.20;;
56517;SDS011;42419;48.760;2.322;2023-04-03T00:10:21;4.03;;;3.10;;
56517;SDS011;42419;48.760;2.322;2023-04-03T00:12:46;4.03;;;3.73;;
56517;SDS011;42419;48.760;2.322;2023-04-03T00:15:12;3.60;;;3.30;;
56517;SDS011;42419;48.760;2.322;2023-04-03T00:17:37;3.50;;;3.20;;
56517;SDS011;42419;48.760;2.322;2023-04-03T00:20:03;3.20;;;3.00;;
56517;SDS011;42419;48.760;2.322;2023-04-03T00:22:29;3.70;;;3.40;;
56517;SDS011;42419;48.760;2.322;2023-04-03T00:24:55;3.80;;;3.50;;
56517;SDS011;42419;48.760;2.322;2023-04-03T00:27:20;3.60;;;3.30;;
56517;SDS011;42419;48.760;2.322;2023-04-03T00:29:46;3.57;;;3.27;;
56517;SDS011;42419;48.760;2.322;2023-04-03T00:32:11;3.90;;;3.33;;
56517;SDS011;42419;48.760;2.322;2023-04-03T00:34:36;3.30;;;3.00;;
56517;SDS011;42419;48.760;2.322;2023-04-03T00:37:02;3.50;;;3.23;;
56517;SDS011;42419;48.760;2.322;2023-04-03T00:39:27;3.30;;;3.00;;
56517;SDS011;42419;48.760;2.322;2023-04-03T00:41:52;3.70;;;3.40;;
56517;SDS011;42419;48.760;2.322;2023-04-03T00:46:58;3.60;;;3.30;;
56517;SDS011;42419;48.760;2.322;2023-04-03T00:49:25;3.13;;;2.93;;
56517;SDS011;42419;48.760;2.322;2023-04-03T00:51:51;3.33;;;3.13;;
56517;SDS011;42419;48.760;2.322;2023-04-03T00:54:17;3.37;;;3.17;;
56517;SDS011;42419;48.760;2.322;2023-04-03T00:56:42;3.67;;;3.10;;
56517;SDS011;42419;48.760;2.322;2023-04-03T00:59:13;3.53;;;3.23;;
56517;SDS011;42419;48.760;2.322;2023-04-03T01:01:41;3.30;;;3.00;;
56517;SDS011;42419;48.760;2.322;2023-04-03T01:04:26;3.67;;;3.37;;
56517;SDS011;42419;48.760;2.322;2023-04-03T01:06:52;3.90;;;3.43;;
56517;SDS011;42419;48.760;2.322;2023-04-03T01:09:21;3.50;;;3.20;;
56517;SDS011;42419;48.760;2.322;2023-04-03T01:11:46;3.00;;;2.80;;
56517;SDS011;42419;48.760;2.322;2023-04-03T01:14:12;3.50;;;3.20;;
56517;SDS011;42419;48.760;2.322;2023-04-03T01:16:37;3.83;;;3.53;;
56517;SDS011;42419;48.760;2.322;2023-04-03T01:19:03;3.20;;;2.90;;
56517;SDS011;42419;48.760;2.322;2023-04-03T01:26:51;3.60;;;3.30;;
56517;SDS011;42419;48.760;2.322;2023-04-03T01:29:17;3.50;;;3.20;;
56517;SDS011;42419;48.760;2.322;2023-04-03T01:31:49;3.60;;;3.30;;
56517;SDS011;42419;48.760;2.322;2023-04-03T01:34:18;3.87;;;3.53;;
56517;SDS011;42419;48.760;2.322;2023-04-03T01:36:44;3.23;;;2.93;;
56517;SDS011;42419;48.760;2.322;2023-04-03T01:39:10;3.27;;;3.00;;
56517;SDS011;42419;48.760;2.322;2023-04-03T01:41:36;3.57;;;3.27;;
56517;SDS011;42419;48.760;2.322;2023-04-03T01:44:01;3.60;;;3.30;;
56517;SDS011;42419;48.760;2.322;2023-04-03T01:46:28;3.60;;;3.30;;
56517;SDS011;42419;48.760;2.322;2023-04-03T01:48:54;3.60;;;3.30;;
56517;SDS011;42419;48.760;2.322;2023-04-03T01:51:19;3.17;;;2.87;;
56517;SDS011;42419;48.760;2.322;2023-04-03T01:53:44;3.87;;;3.33;;
56517;SDS011;42419;48.760;2.322;2023-04-03T01:56:10;3.50;;;3.20;;
56517;SDS011;42419;48.760;2.322;2023-04-03T01:58:35;3.67;;;3.37;;
56517;SDS011;42419;48.760;2.322;2023-04-03T02:01:00;3.97;;;3.67;;
56517;SDS011;42419;48.760;2.322;2023-04-03T02:03:26;3.40;;;3.10;;
56517;SDS011;42419;48.760;2.322;2023-04-03T02:05:52;3.87;;;3.57;;
56517;SDS011;42419;48.760;2.322;2023-04-03T02:08:17;2.97;;;2.53;;
56517;SDS011;42419;48.760;2.322;2023-04-03T02:10:43;3.43;;;3.13;;
56517;SDS011;42419;48.760;2.322;2023-04-03T02:13:11;3.10;;;2.80;;
56517;SDS011;42419;48.760;2.322;2023-04-03T02:15:40;3.23;;;2.93;;
56517;SDS011;42419;48.760;2.322;2023-04-03T02:18:05;3.43;;;3.13;;
56517;SDS011;42419;48.760;2.322;2023-04-03T02:20:31;4.07;;;3.00;;
56517;SDS011;42419;48.760;2.322;2023-04-03T02:22:57;2.97;;;2.77;;
56517;SDS011;42419;48.760;2.322;2023-04-03T02:25:23;3.40;;;3.10;;
56517;SDS011;42419;48.760;2.322;2023-04-03T02:27:48;3.47;;;3.00;;
56517;SDS011;42419;48.760;2.322;2023-04-03T02:30:14;3.30;;;3.10;;
56517;SDS011;42419;48.760;2.322;2023-04-03T02:32:40;3.50;;;3.20;;
56517;SDS011;42419;48.760;2.322;2023-04-03T02:35:06;3.03;;;2.53;;
56517;SDS011;42419;48.760;2.322;2023-04-03T02:37:32;2.83;;;2.63;;
56517;SDS011;42419;48.760;2.322;2023-04-03T02:39:57;3.03;;;2.60;;
56517;SDS011;42419;48.760;2.322;2023-04-03T02:42:23;3.77;;;3.37;;
56517;SDS011;42419;48.760;2.322;2023-04-03T02:44:48;3.03;;;2.80;;
56517;SDS011;42419;48.760;2.322;2023-04-03T02:47:13;2.80;;;2.60;;
56517;SDS011;42419;48.760;2.322;2023-04-03T02:49:39;3.03;;;2.80;;
56517;SDS011;42419;48.760;2.322;2023-04-03T02:52:04;3.07;;;2.87;;
56517;SDS011;42419;48.760;2.322;2023-04-03T02:54:29;3.50;;;3.20;;
56517;SDS011;42419;48.760;2.322;2023-04-03T02:56:55;3.03;;;2.83;;
56517;SDS011;42419;48.760;2.322;2023-04-03T02:59:21;3.10;;;2.90;;
56517;SDS011;42419;48.760;2.322;2023-04-03T03:01:47;3.40;;;3.10;;
56517;SDS011;42419;48.760;2.322;2023-04-03T03:04:12;3.60;;;3.30;;
56517;SDS011;42419;48.760;2.322;2023-04-03T03:06:37;3.47;;;3.13;;
56517;SDS011;42419;48.760;2.322;2023-04-03T03:09:03;2.80;;;2.60;;
56517;SDS011;42419;48.760;2.322;2023-04-03T03:11:29;3.07;;;2.87;;
56517;SDS011;42419;48.760;2.322;2023-04-03T03:13:55;2.80;;;2.60;;
56517;SDS011;42419;48.760;2.322;2023-04-03T03:16:20;3.00;;;2.80;;
56517;SDS011;42419;48.760;2.322;2023-04-03T03:18:46;3.00;;;2.70;;
56517;SDS011;42419;48.760;2.322;2023-04-03T03:21:11;3.87;;;2.70;;
56517;SDS011;42419;48.760;2.322;2023-04-03T03:23:36;2.93;;;2.73;;
56517;SDS011;42419;48.760;2.322;2023-04-03T03:26:03;3.20;;;2.70;;
56517;SDS011;42419;48.760;2.322;2023-04-03T03:28:30;2.70;;;2.50;;
56517;SDS011;42419;48.760;2.322;2023-04-03T03:30:57;3.00;;;2.80;;
56517;SDS011;42419;48.760;2.322;2023-04-03T03:33:23;3.53;;;2.90;;
56517;SDS011;42419;48.760;2.322;2023-04-03T03:35:50;3.07;;;2.80;;
56517;SDS011;42419;48.760;2.322;2023-04-03T03:38:17;2.93;;;2.67;;
56517;SDS011;42419;48.760;2.322;2023-04-03T03:40:42;2.97;;;2.53;;
56517;SDS011;42419;48.760;2.322;2023-04-03T03:43:07;2.70;;;2.30;;
56517;SDS011;42419;48.760;2.322;2023-04-03T03:45:33;2.50;;;2.30;;
56517;SDS011;42419;48.760;2.322;2023-04-03T03:47:58;2.90;;;2.70;;
56517;SDS011;42419;48.760;2.322;2023-04-03T03:50:23;2.60;;;2.40;;
56517;SDS011;42419;48.760;2.322;2023-04-03T03:52:49;2.47;;;2.27;;
56517;SDS011;42419;48.760;2.322;2023-04-03T03:55:14;3.23;;;2.70;;
56517;SDS011;42419;48.760;2.322;2023-04-03T03:57:40;3.23;;;3.00;;
56517;SDS011;42419;48.760;2.322;2023-04-03T04:00:05;2.90;;;2.60;;
56517;SDS011;42419;48.760;2.322;2023-04-03T04:02:32;2.50;;;2.30;;
56517;SDS011;42419;48.760;2.322;2023-04-03T04:04:57;2.57;;;2.37;;
56517;SDS011;42419;48.760;2.322;2023-04-03T04:07:23;2.83;;;2.63;;
56517;SDS011;42419;48.760;2.322;2023-04-03T04:09:48;3.03;;;2.73;;
56517;SDS011;42419;48.760;2.322;2023-04-03T04:12:13;2.77;;;2.57;;
56517;SDS011;42419;48.760;2.322;2023-04-03T04:14:39;2.63;;;2.43;;
56517;SDS011;42419;48.760;2.322;2023-04-03T04:17:05;3.20;;;2.30;;
56517;SDS011;42419;48.760;2.322;2023-04-03T04:19:30;2.63;;;2.40;;
56517;SDS011;42419;48.760;2.322;2023-04-03T04:21:55;2.60;;;2.40;;
56517;SDS011;42419;48.760;2.322;2023-04-03T04:24:21;2.53;;;2.33;;
56517;SDS011;42419;48.760;2.322;2023-04-03T04:26:47;2.77;;;2.57;;
56517;SDS011;42419;48.760;2.322;2023-04-03T04:29:13;3.03;;;2.83;;
56517;SDS011;42419;48.760;2.322;2023-04-03T04:31:38;2.63;;;2.40;;
56517;SDS011;42419;48.760;2.322;2023-04-03T04:34:04;2.77;;;2.57;;
56517;SDS011;42419;48.760;2.322;2023-04-03T04:36:29;3.53;;;2.47;;
56517;SDS011;42419;48.760;2.322;2023-04-03T04:38:54;2.63;;;2.43;;
56517;SDS011;42419;48.760;2.322;2023-04-03T04:41:20;2.37;;;2.17;;
56517;SDS011;42419;48.760;2.322;2023-04-03T04:43:47;2.57;;;2.37;;
56517;SDS011;42419;48.760;2.322;2023-04-03T04:46:13;2.43;;;2.23;;
56517;SDS011;42419;48.760;2.322;2023-04-03T04:48:39;2.93;;;2.73;;
56517;SDS011;42419;48.760;2.322;2023-04-03T04:51:05;2.77;;;2.17;;
56517;SDS011;42419;48.760;2.322;2023-04-03T04:53:31;3.67;;;2.67;;
56517;SDS011;42419;48.760;2.322;2023-04-03T04:55:56;3.27;;;2.70;;
56517;SDS011;42419;48.760;2.322;2023-04-03T04:58:22;3.87;;;2.67;;
56517;SDS011;42419;48.760;2.322;2023-04-03T05:00:47;2.40;;;2.20;;
56517;SDS011;42419;48.760;2.322;2023-04-03T05:03:12;2.43;;;2.23;;
56517;SDS011;42419;48.760;2.322;2023-04-03T05:05:38;2.23;;;2.03;;
56517;SDS011;42419;48.760;2.322;2023-04-03T05:08:03;2.10;;;1.83;;
56517;SDS011;42419;48.760;2.322;2023-04-03T05:10:29;3.03;;;2.33;;
56517;SDS011;42419;48.760;2.322;2023-04-03T05:12:56;3.60;;;2.10;;
56517;SDS011;42419;48.760;2.322;2023-04-03T05:15:22;2.33;;;2.13;;
56517;SDS011;42419;48.760;2.322;2023-04-03T05:17:47;3.20;;;2.20;;
56517;SDS011;42419;48.760;2.322;2023-04-03T05:20:13;2.53;;;2.33;;
56517;SDS011;42419;48.760;2.322;2023-04-03T05:22:38;2.63;;;2.30;;
56517;SDS011;42419;48.760;2.322;2023-04-03T05:25:04;3.10;;;2.60;;
56517;SDS011;42419;48.760;2.322;2023-04-03T05:27:30;2.70;;;2.50;;
56517;SDS011;42419;48.760;2.322;2023-04-03T05:29:55;7.20;;;2.50;;
56517;SDS011;42419;48.760;2.322;2023-04-03T05:32:22;2.40;;;2.20;;
56517;SDS011;42419;48.760;2.322;2023-04-03T05:34:47;2.50;;;2.10;;
56517;SDS011;42419;48.760;2.322;2023-04-03T05:37:13;3.00;;;2.50;;
56517;SDS011;42419;48.760;2.322;2023-04-03T05:39:38;2.60;;;2.37;;
56517;SDS011;42419;48.760;2.322;2023-04-03T05:42:05;2.70;;;2.50;;
56517;SDS011;42419;48.760;2.322;2023-04-03T05:44:31;3.70;;;2.83;;
56517;SDS011;42419;48.760;2.322;2023-04-03T05:46:57;2.40;;;2.20;;
56517;SDS011;42419;48.760;2.322;2023-04-03T05:49:22;2.70;;;2.30;;
56517;SDS011;42419;48.760;2.322;2023-04-03T05:51:47;2.17;;;1.97;;
56517;SDS011;42419;48.760;2.322;2023-04-03T05:54:17;2.87;;;1.90;;
56517;SDS011;42419;48.760;2.322;2023-04-03T05:56:50;3.00;;;2.50;;
56517;SDS011;42419;48.760;2.322;2023-04-03T05:59:17;2.37;;;2.17;;
56517;SDS011;42419;48.760;2.322;2023-04-03T06:01:43;2.40;;;2.20;;
56517;SDS011;42419;48.760;2.322;2023-04-03T06:04:09;2.17;;;1.93;;
56517;SDS011;42419;48.760;2.322;2023-04-03T06:06:50;2.60;;;2.40;;
56517;SDS011;42419;48.760;2.322;2023-04-03T06:09:16;2.87;;;2.67;;
56517;SDS011;42419;48.760;2.322;2023-04-03T06:11:43;4.13;;;2.80;;
56517;SDS011;42419;48.760;2.322;2023-04-03T06:14:09;3.87;;;2.53;;
56517;SDS011;42419;48.760;2.322;2023-04-03T06:16:35;4.23;;;2.90;;
56517;SDS011;42419;48.760;2.322;2023-04-03T06:19:00;5.17;;;2.37;;
56517;SDS011;42419;48.760;2.322;2023-04-03T06:21:26;5.00;;;2.43;;
56517;SDS011;42419;48.760;2.322;2023-04-03T06:23:51;6.93;;;2.73;;
56517;SDS011;42419;48.760;2.322;2023-04-03T06:26:17;3.87;;;2.50;;
56517;SDS011;42419;48.760;2.322;2023-04-03T06:28:42;7.03;;;2.53;;
56517;SDS011;42419;48.760;2.322;2023-04-03T06:31:08;3.03;;;2.73;;
56517;SDS011;42419;48.760;2.322;2023-04-03T06:33:33;4.20;;;2.60;;
56517;SDS011;42419;48.760;2.322;2023-04-03T06:35:59;4.00;;;2.23;;
56517;SDS011;42419;48.760;2.322;2023-04-03T06:38:27;3.67;;;2.47;;
56517;SDS011;42419;48.760;2.322;2023-04-03T06:40:53;2.80;;;2.40;;
56517;SDS011;42419;48.760;2.322;2023-04-03T06:43:18;3.93;;;2.30;;
56517;SDS011;42419;48.760;2.322;2023-04-03T06:45:44;2.37;;;2.00;;
56517;SDS011;42419;48.760;2.322;2023-04-03T06:48:10;3.70;;;2.47;;
56517;SDS011;42419;48.760;2.322;2023-04-03T06:50:36;2.87;;;2.40;;
56517;SDS011;42419;48.760;2.322;2023-04-03T06:53:01;2.90;;;2.63;;
56517;SDS011;42419;48.760;2.322;2023-04-03T06:55:27;4.20;;;2.13;;
56517;SDS011;42419;48.760;2.322;2023-04-03T06:57:52;5.80;;;2.40;;
56517;SDS011;42419;48.760;2.322;2023-04-03T07:00:18;2.60;;;1.90;;
56517;SDS011;42419;48.760;2.322;2023-04-03T07:02:43;2.93;;;2.70;;
56517;SDS011;42419;48.760;2.322;2023-04-03T07:05:09;5.50;;;2.17;;
56517;SDS011;42419;48.760;2.322;2023-04-03T07:07:34;2.40;;;2.00;;
56517;SDS011;42419;48.760;2.322;2023-04-03T07:10:00;2.70;;;2.50;;
56517;SDS011;42419;48.760;2.322;2023-04-03T07:12:25;2.90;;;2.53;;
56517;SDS011;42419;48.760;2.322;2023-04-03T07:14:51;2.50;;;2.30;;
56517;SDS011;42419;48.760;2.322;2023-04-03T07:17:16;5.07;;;2.10;;
56517;SDS011;42419;48.760;2.322;2023-04-03T07:19:41;2.67;;;2.30;;
56517;SDS011;42419;48.760;2.322;2023-04-03T07:22:07;3.47;;;2.40;;
56517;SDS011;42419;48.760;2.322;2023-04-03T07:24:32;3.47;;;2.77;;
56517;SDS011;42419;48.760;2.322;2023-04-03T07:26:58;2.83;;;2.53;;
56517;SDS011;42419;48.760;2.322;2023-04-03T07:29:23;6.13;;;2.57;;
56517;SDS011;42419;48.760;2.322;2023-04-03T07:31:49;2.43;;;2.23;;
56517;SDS011;42419;48.760;2.322;2023-04-03T07:34:14;3.60;;;2.20;;
56517;SDS011;42419;48.760;2.322;2023-04-03T07:36:40;5.50;;;2.67;;
56517;SDS011;42419;48.760;2.322;2023-04-03T07:39:06;5.63;;;2.63;;
56517;SDS011;42419;48.760;2.322;2023-04-03T07:41:32;2.30;;;2.10;;
56517;SDS011;42419;48.760;2.322;2023-04-03T07:43:57;2.87;;;2.40;;
56517;SDS011;42419;48.760;2.322;2023-04-03T07:46:23;2.53;;;2.33;;
56517;SDS011;42419;48.760;2.322;2023-04-03T07:48:48;9.00;;;3.67;;
56517;SDS011;42419;48.760;2.322;2023-04-03T07:51:14;9.20;;;4.00;;
56517;SDS011;42419;48.760;2.322;2023-04-03T07:53:40;5.37;;;3.10;;
56517;SDS011;42419;48.760;2.322;2023-04-03T07:56:05;6.70;;;2.60;;
56517;SDS011;42419;48.760;2.322;2023-04-03T07:58:31;4.67;;;2.30;;
56517;SDS011;42419;48.760;2.322;2023-04-03T08:00:57;3.30;;;2.23;;
56517;SDS011;42419;48.760;2.322;2023-04-03T08:03:23;3.30;;;2.20;;
56517;SDS011;42419;48.760;2.322;2023-04-03T08:05:49;3.40;;;2.67;;
56517;SDS011;42419;48.760;2.322;2023-04-03T08:08:18;3.03;;;2.30;;
56517;SDS011;42419;48.760;2.322;2023-04-03T08:10:49;2.93;;;2.27;;
56517;SDS011;42419;48.760;2.322;2023-04-03T08:13:16;4.00;;;2.70;;
56517;SDS011;42419;48.760;2.322;2023-04-03T08:15:42;3.37;;;2.37;;
56517;SDS011;42419;48.760;2.322;2023-04-03T08:18:07;5.40;;;2.50;;
56517;SDS011;42419;48.760;2.322;2023-04-03T08:20:32;2.73;;;2.47;;
56517;SDS011;42419;48.760;2.322;2023-04-03T08:22:58;3.10;;;1.80;;
56517;SDS011;42419;48.760;2.322;2023-04-03T08:25:23;3.53;;;2.17;;
56517;SDS011;42419;48.760;2.322;2023-04-03T08:27:48;3.30;;;2.40;;
56517;SDS011;42419;48.760;2.322;2023-04-03T08:30:14;3.63;;;2.33;;
56517;SDS011;42419;48.760;2.322;2023-04-03T08:32:39;2.30;;;2.07;;
56517;SDS011;42419;48.760;2.322;2023-04-03T08:35:07;3.47;;;2.43;;
56517;SDS011;42419;48.760;2.322;2023-04-03T08:37:34;2.73;;;1.90;;
56517;SDS011;42419;48.760;2.322;2023-04-03T08:40:01;2.23;;;2.03;;
56517;SDS011;42419;48.760;2.322;2023-04-03T08:45:09;3.43;;;1.53;;
56517;SDS011;42419;48.760;2.322;2023-04-03T08:50:16;5.10;;;1.93;;
56517;SDS011;42419;48.760;2.322;2023-04-03T08:52:49;4.00;;;2.30;;
56517;SDS011;42419;48.760;2.322;2023-04-03T08:55:59;2.57;;;1.73;;
56517;SDS011;42419;48.760;2.322;2023-04-03T08:58:12;3.93;;;1.80;;
56517;SDS011;42419;48.760;2.322;2023-04-03T09:00:56;2.83;;;2.03;;
56517;SDS011;42419;48.760;2.322;2023-04-03T09:03:23;2.63;;;1.83;;
56517;SDS011;42419;48.760;2.322;2023-04-03T09:10:46;3.30;;;2.17;;
56517;SDS011;42419;48.760;2.322;2023-04-03T09:15:57;5.67;;;2.20;;
56517;SDS011;42419;48.760;2.322;2023-04-03T09:18:25;4.27;;;2.00;;
56517;SDS011;42419;48.760;2.322;2023-04-03T09:21:32;6.67;;;2.20;;
56517;SDS011;42419;48.760;2.322;2023-04-03T09:23:58;3.90;;;2.27;;
56517;SDS011;42419;48.760;2.322;2023-04-03T09:26:30;2.93;;;2.17;;
56517;SDS011;42419;48.760;2.322;2023-04-03T09:29:05;2.90;;;1.70;;
56517;SDS011;42419;48.760;2.322;2023-04-03T09:32:39;2.53;;;2.13;;
56517;SDS011;42419;48.760;2.322;2023-04-03T09:35:00;8.70;;;2.17;;
56517;SDS011;42419;48.760;2.322;2023-04-03T09:37:42;14.60;;;2.50;;
56517;SDS011;42419;48.760;2.322;2023-04-03T09:42:49;6.50;;;1.93;;
56517;SDS011;42419;48.760;2.322;2023-04-03T09:45:36;2.40;;;1.83;;
56517;SDS011;42419;48.760;2.322;2023-04-03T09:48:12;3.47;;;1.80;;
56517;SDS011;42419;48.760;2.322;2023-04-03T09:54:03;4.20;;;2.20;;
56517;SDS011;42419;48.760;2.322;2023-04-03T09:58:42;4.60;;;2.23;;
56517;SDS011;42419;48.760;2.322;2023-04-03T10:01:27;2.20;;;1.77;;
56517;SDS011;42419;48.760;2.322;2023-04-03T10:06:32;4.90;;;2.10;;
56517;SDS011;42419;48.760;2.322;2023-04-03T10:14:30;2.10;;;1.90;;
56517;SDS011;42419;48.760;2.322;2023-04-03T10:16:59;3.63;;;2.00;;
56517;SDS011;42419;48.760;2.322;2023-04-03T10:19:34;2.60;;;1.87;;
56517;SDS011;42419;48.760;2.322;2023-04-03T10:27:39;2.10;;;1.70;;
56517;SDS011;42419;48.760;2.322;2023-04-03T10:30:18;2.00;;;1.80;;
56517;SDS011;42419;48.760;2.322;2023-04-03T10:41:31;3.50;;;2.20;;
56517;SDS011;42419;48.760;2.322;2023-04-03T10:44:14;6.23;;;2.20;;
56517;SDS011;42419;48.760;2.322;2023-04-03T10:46:49;3.50;;;2.60;;
56517;SDS011;42419;48.760;2.322;2023-04-03T10:49:25;3.97;;;2.17;;
56517;SDS011;42419;48.760;2.322;2023-04-03T10:52:24;4.73;;;2.23;;
56517;SDS011;42419;48.760;2.322;2023-04-03T10:57:47;6.80;;;3.20;;
56517;SDS011;42419;48.760;2.322;2023-04-03T11:00:25;7.43;;;3.33;;
56517;SDS011;42419;48.760;2.322;2023-04-03T11:03:06;9.63;;;5.03;;
56517;SDS011;42419;48.760;2.322;2023-04-03T11:05:41;9.47;;;6.07;;
56517;SDS011;42419;48.760;2.322;2023-04-03T11:11:06;17.30;;;7.50;;
56517;SDS011;42419;48.760;2.322;2023-04-03T11:16:19;16.37;;;9.10;;
56517;SDS011;42419;48.760;2.322;2023-04-03T11:18:50;19.90;;;10.23;;
56517;SDS011;42419;48.760;2.322;2023-04-03T11:21:20;15.33;;;10.73;;
56517;SDS011;42419;48.760;2.322;2023-04-03T11:23:51;14.57;;;11.10;;
56517;SDS011;42419;48.760;2.322;2023-04-03T11:26:19;15.67;;;11.60;;
56517;SDS011;42419;48.760;2.322;2023-04-03T11:28:52;12.73;;;10.30;;
56517;SDS011;42419;48.760;2.322;2023-04-03T11:31:29;12.27;;;10.70;;
56517;SDS011;42419;48.760;2.322;2023-04-03T11:36:52;16.23;;;9.73;;
56517;SDS011;42419;48.760;2.322;2023-04-03T11:39:34;19.73;;;8.70;;
56517;SDS011;42419;48.760;2.322;2023-04-03T11:42:13;10.80;;;7.70;;
56517;SDS011;42419;48.760;2.322;2023-04-03T11:44:48;10.57;;;8.23;;
56517;SDS011;42419;48.760;2.322;2023-04-03T11:47:43;12.13;;;8.30;;
56517;SDS011;42419;48.760;2.322;2023-04-03T11:53:46;10.20;;;6.57;;
56517;SDS011;42419;48.760;2.322;2023-04-03T11:55:58;13.73;;;6.73;;
56517;SDS011;42419;48.760;2.322;2023-04-03T11:58:32;7.40;;;5.67;;
56517;SDS011;42419;48.760;2.322;2023-04-03T12:01:00;10.70;;;6.47;;
56517;SDS011;42419;48.760;2.322;2023-04-03T12:05:55;10.00;;;5.03;;
56517;SDS011;42419;48.760;2.322;2023-04-03T12:42:32;5.73;;;2.33;;
56517;SDS011;42419;48.760;2.322;2023-04-03T12:47:48;4.53;;;2.20;;
56517;SDS011;42419;48.760;2.322;2023-04-03T12:50:27;4.73;;;2.30;;
56517;SDS011;42419;48.760;2.322;2023-04-03T12:55:29;3.30;;;2.03;;
56517;SDS011;42419;48.760;2.322;2023-04-03T12:57:54;4.97;;;2.20;;
56517;SDS011;42419;48.760;2.322;2023-04-03T13:02:46;3.60;;;1.97;;
56517;SDS011;42419;48.760;2.322;2023-04-03T13:05:16;4.50;;;2.57;;
56517;SDS011;42419;48.760;2.322;2023-04-03T13:07:43;3.60;;;2.43;;
56517;SDS011;42419;48.760;2.322;2023-04-03T13:12:35;2.97;;;1.90;;
56517;SDS011;42419;48.760;2.322;2023-04-03T13:15:39;4.37;;;2.37;;
56517;SDS011;42419;48.760;2.322;2023-04-03T13:18:05;4.33;;;2.33;;
56517;SDS011;42419;48.760;2.322;2023-04-03T13:20:33;3.00;;;1.90;;
56517;SDS011;42419;48.760;2.322;2023-04-03T13:23:02;2.50;;;1.83;;
56517;SDS011;42419;48.760;2.322;2023-04-03T13:25:31;2.97;;;1.80;;
56517;SDS011;42419;48.760;2.322;2023-04-03T13:27:59;3.50;;;2.10;;
56517;SDS011;42419;48.760;2.322;2023-04-03T13:30:28;1.90;;;1.70;;
56517;SDS011;42419;48.760;2.322;2023-04-03T13:32:57;4.70;;;2.10;;
56517;SDS011;42419;48.760;2.322;2023-04-03T13:38:06;4.60;;;2.10;;
56517;SDS011;42419;48.760;2.322;2023-04-03T13:40:48;3.33;;;1.80;;
56517;SDS011;42419;48.760;2.322;2023-04-03T13:43:18;1.70;;;1.60;;
56517;SDS011;42419;48.760;2.322;2023-04-03T13:45:58;4.33;;;2.00;;
56517;SDS011;42419;48.760;2.322;2023-04-03T13:48:26;3.10;;;2.50;;
56517;SDS011;42419;48.760;2.322;2023-04-03T13:51:02;6.00;;;2.00;;
56517;SDS011;42419;48.760;2.322;2023-04-03T13:53:30;2.10;;;1.83;;
56517;SDS011;42419;48.760;2.322;2023-04-03T13:55:59;3.40;;;2.00;;
56517;SDS011;42419;48.760;2.322;2023-04-03T13:58:31;2.63;;;1.90;;
56517;SDS011;42419;48.760;2.322;2023-04-03T14:06:13;3.57;;;2.50;;
56517;SDS011;42419;48.760;2.322;2023-04-03T14:08:40;3.07;;;1.73;;
56517;SDS011;42419;48.760;2.322;2023-04-03T14:11:08;1.77;;;1.67;;
56517;SDS011;42419;48.760;2.322;2023-04-03T14:13:37;2.83;;;1.87;;
56517;SDS011;42419;48.760;2.322;2023-04-03T14:16:03;9.83;;;2.37;;
56517;SDS011;42419;48.760;2.322;2023-04-03T14:18:28;1.90;;;1.70;;
56517;SDS011;42419;48.760;2.322;2023-04-03T14:20:54;2.93;;;1.87;;
56517;SDS011;42419;48.760;2.322;2023-04-03T14:23:19;2.60;;;1.90;;
56517;SDS011;42419;48.760;2.322;2023-04-03T14:25:45;3.83;;;1.60;;
56517;SDS011;42419;48.760;2.322;2023-04-03T14:28:13;2.10;;;1.90;;
56517;SDS011;42419;48.760;2.322;2023-04-03T14:30:41;3.40;;;1.73;;
56517;SDS011;42419;48.760;2.322;2023-04-03T14:33:09;4.03;;;1.60;;
56517;SDS011;42419;48.760;2.322;2023-04-03T14:35:38;3.27;;;1.80;;
56517;SDS011;42419;48.760;2.322;2023-04-03T14:38:05;2.13;;;1.93;;
56517;SDS011;42419;48.760;2.322;2023-04-03T14:40:41;4.17;;;2.17;;
56517;SDS011;42419;48.760;2.322;2023-04-03T14:43:09;2.40;;;2.20;;
56517;SDS011;42419;48.760;2.322;2023-04-03T14:45:35;2.33;;;1.97;;
56517;SDS011;42419;48.760;2.322;2023-04-03T14:48:00;2.03;;;1.83;;
56517;SDS011;42419;48.760;2.322;2023-04-03T14:50:26;5.87;;;2.03;;
56517;SDS011;42419;48.760;2.322;2023-04-03T14:52:53;1.93;;;1.83;;
56517;SDS011;42419;48.760;2.322;2023-04-03T14:55:22;2.03;;;1.83;;
56517;SDS011;42419;48.760;2.322;2023-04-03T14:57:49;2.00;;;1.80;;
56517;SDS011;42419;48.760;2.322;2023-04-03T15:00:16;1.80;;;1.70;;
56517;SDS011;42419;48.760;2.322;2023-04-03T15:02:43;2.87;;;1.90;;
56517;SDS011;42419;48.760;2.322;2023-04-03T15:05:09;6.20;;;2.20;;
56517;SDS011;42419;48.760;2.322;2023-04-03T15:07:36;2.10;;;1.90;;
56517;SDS011;42419;48.760;2.322;2023-04-03T15:12:43;2.43;;;2.00;;
56517;SDS011;42419;48.760;2.322;2023-04-03T15:15:09;2.03;;;1.70;;
56517;SDS011;42419;48.760;2.322;2023-04-03T15:17:35;2.47;;;1.90;;
56517;SDS011;42419;48.760;2.322;2023-04-03T15:20:01;2.10;;;1.90;;
56517;SDS011;42419;48.760;2.322;2023-04-03T15:22:27;2.00;;;1.80;;
56517;SDS011;42419;48.760;2.322;2023-04-03T15:24:53;2.17;;;1.97;;
56517;SDS011;42419;48.760;2.322;2023-04-03T15:27:18;2.00;;;1.67;;
56517;SDS011;42419;48.760;2.322;2023-04-03T15:29:44;2.00;;;1.80;;
56517;SDS011;42419;48.760;2.322;2023-04-03T15:32:10;2.73;;;1.33;;
56517;SDS011;42419;48.760;2.322;2023-04-03T15:34:36;3.50;;;2.03;;
56517;SDS011;42419;48.760;2.322;2023-04-03T15:37:01;2.60;;;1.70;;
56517;SDS011;42419;48.760;2.322;2023-04-03T15:39:27;2.20;;;1.90;;
56517;SDS011;42419;48.760;2.322;2023-04-03T15:41:53;2.77;;;2.10;;
56517;SDS011;42419;48.760;2.322;2023-04-03T15:44:19;1.90;;;1.63;;
56517;SDS011;42419;48.760;2.322;2023-04-03T15:46:48;2.60;;;2.10;;
56517;SDS011;42419;48.760;2.322;2023-04-03T15:49:16;2.93;;;1.87;;
56517;SDS011;42419;48.760;2.322;2023-04-03T15:51:42;2.80;;;1.57;;
56517;SDS011;42419;48.760;2.322;2023-04-03T15:54:07;2.23;;;1.90;;
56517;SDS011;42419;48.760;2.322;2023-04-03T15:56:33;2.33;;;1.67;;
56517;SDS011;42419;48.760;2.322;2023-04-03T15:58:58;2.27;;;2.00;;
56517;SDS011;42419;48.760;2.322;2023-04-03T16:01:23;2.00;;;1.70;;
56517;SDS011;42419;48.760;2.322;2023-04-03T16:03:49;2.47;;;2.10;;
56517;SDS011;42419;48.760;2.322;2023-04-03T16:06:15;2.50;;;1.87;;
56517;SDS011;42419;48.760;2.322;2023-04-03T16:08:41;1.73;;;1.60;;
56517;SDS011;42419;48.760;2.322;2023-04-03T16:11:07;2.17;;;1.97;;
56517;SDS011;42419;48.760;2.322;2023-04-03T16:13:33;2.27;;;1.63;;
56517;SDS011;42419;48.760;2.322;2023-04-03T16:15:58;2.53;;;2.03;;
56517;SDS011;42419;48.760;2.322;2023-04-03T16:18:25;3.40;;;1.80;;
56517;SDS011;42419;48.760;2.322;2023-04-03T16:20:50;2.87;;;1.90;;
56517;SDS011;42419;48.760;2.322;2023-04-03T16:23:16;3.40;;;2.00;;
56517;SDS011;42419;48.760;2.322;2023-04-03T16:25:41;1.73;;;1.63;;
56517;SDS011;42419;48.760;2.322;2023-04-03T16:28:11;2.03;;;1.63;;
56517;SDS011;42419;48.760;2.322;2023-04-03T16:30:37;8.53;;;2.13;;
56517;SDS011;42419;48.760;2.322;2023-04-03T16:33:07;1.83;;;1.60;;
56517;SDS011;42419;48.760;2.322;2023-04-03T16:35:34;2.70;;;2.03;;
56517;SDS011;42419;48.760;2.322;2023-04-03T16:37:59;4.80;;;1.90;;
56517;SDS011;42419;48.760;2.322;2023-04-03T16:40:25;1.50;;;1.40;;
56517;SDS011;42419;48.760;2.322;2023-04-03T16:42:50;2.97;;;1.93;;
56517;SDS011;42419;48.760;2.322;2023-04-03T16:45:16;2.50;;;1.77;;
56517;SDS011;42419;48.760;2.322;2023-04-03T16:47:41;2.47;;;1.73;;
56517;SDS011;42419;48.760;2.322;2023-04-03T16:50:06;1.87;;;1.60;;
56517;SDS011;42419;48.760;2.322;2023-04-03T16:52:32;4.00;;;2.13;;
56517;SDS011;42419;48.760;2.322;2023-04-03T16:54:58;2.17;;;1.60;;